Time;durP1;ratioP1;P1;durP2;ratioP2;P2;SDS_P1;SDS_P2;PMS_P1;PMS_P2;Temp;Humidity;BMP_temperature;BMP_pressure;BME280_temperature;BME280_humidity;BME280_pressure;Samples;Min_cycle;Max_cycle;Signal;HPM_P1;HPM_P2
2023/04/12 00:00:30;;;;;;;;;6.00;6.00;;;;;10.75;82.18;100109.25;4998363;28;46439;-54
2023/04/12 00:02:58;;;;;;;;;5.00;5.00;;;;;10.72;82.04;100110.38;4998631;28;45355;-58
2023/04/12 00:05:26;;;;;;;;;6.33;3.00;;;;;10.72;82.05;100107.72;4998467;28;45274;-53
2023/04/12 00:07:52;;;;;;;;;2.67;2.67;;;;;10.74;83.03;100111.06;4998189;28;45362;-58
2023/04/12 00:10:18;;;;;;;;;6.67;4.33;;;;;10.72;82.96;100115.72;4997836;28;47260;-50
2023/04/12 00:12:43;;;;;;;;;5.33;2.00;;;;;10.72;82.28;100109.56;4998021;28;45497;-50
2023/04/12 00:15:09;;;;;;;;;6.00;6.00;;;;;10.74;81.73;100116.41;4998237;28;45274;-51
2023/04/12 00:17:35;;;;;;;;;5.00;3.00;;;;;10.76;82.43;100097.59;4998356;28;45267;-50
2023/04/12 00:20:04;;;;;;;;;6.33;4.33;;;;;10.74;83.92;100089.78;4997933;28;46123;-54
2023/04/12 00:22:29;;;;;;;;;9.33;5.67;;;;;10.75;83.17;100087.97;4997790;28;45425;-54
2023/04/12 00:24:55;;;;;;;;;11.00;5.33;;;;;10.76;83.00;100094.09;4997994;28;45781;-54
2023/04/12 00:27:20;;;;;;;;;5.00;2.67;;;;;10.64;83.07;100066.97;4998026;28;45422;-55
2023/04/12 00:29:45;;;;;;;;;5.00;5.00;;;;;10.78;83.82;100076.97;4997789;28;45326;-59
2023/04/12 00:32:10;;;;;;;;;3.00;3.00;;;;;10.76;83.12;100071.00;4997845;28;45418;-58
2023/04/12 00:34:36;;;;;;;;;5.33;3.00;;;;;10.75;83.63;100069.34;4997870;28;45369;-53
2023/04/12 00:37:01;;;;;;;;;4.00;2.67;;;;;10.66;82.87;100046.34;4998076;28;45286;-51
2023/04/12 00:39:26;;;;;;;;;3.33;3.00;;;;;10.69;83.66;100036.22;4997420;28;46938;-50
2023/04/12 00:41:52;;;;;;;;;3.00;3.00;;;;;10.76;83.06;100036.41;4980086;28;45491;-52
2023/04/12 00:44:17;;;;;;;;;11.00;3.00;;;;;10.81;82.52;100058.03;4997872;28;45309;-49
2023/04/12 00:46:45;;;;;;;;;6.00;3.00;;;;;10.80;82.72;100042.22;4997832;28;45474;-51
2023/04/12 00:49:11;;;;;;;;;6.33;3.00;;;;;10.81;82.19;100027.94;4997540;28;46884;-57
2023/04/12 00:51:36;;;;;;;;;9.67;3.00;;;;;10.83;82.79;100025.91;4997354;28;45206;-56
2023/04/12 00:54:02;;;;;;;;;8.00;2.00;;;;;10.83;83.16;100007.28;4997533;28;45171;-57
2023/04/12 00:56:29;;;;;;;;;9.67;3.00;;;;;10.83;82.98;99996.66;4979075;28;45364;-57
2023/04/12 00:58:55;;;;;;;;;12.00;5.67;;;;;10.84;83.23;100004.50;4997181;28;45345;-56
2023/04/12 01:01:20;;;;;;;;;6.00;3.00;;;;;10.85;83.49;99994.66;4997438;28;45359;-54
2023/04/12 01:03:47;;;;;;;;;6.00;2.33;;;;;10.86;83.16;100002.47;4997492;28;45486;-53
2023/04/12 01:06:20;;;;;;;;;4.33;4.33;;;;;10.88;81.91;99997.84;4997771;28;45196;-52
2023/04/12 01:08:56;;;;;;;;;2.67;2.67;;;;;10.88;81.68;99999.66;4997002;28;46089;-51
2023/04/12 01:11:31;;;;;;;;;5.00;4.33;;;;;10.89;82.29;99942.78;4997164;28;45430;-53
2023/04/12 01:14:08;;;;;;;;;4.00;3.00;;;;;10.88;83.28;99949.13;4997394;28;45257;-58
2023/04/12 01:16:40;;;;;;;;;4.00;2.00;;;;;10.88;83.32;99943.78;4997227;28;45334;-58
2023/04/12 01:19:36;;;;;;;;;12.33;5.00;;;;;10.90;82.23;99939.13;4997028;28;46231;-50
2023/04/12 01:22:15;;;;;;;;;7.33;3.67;;;;;10.89;83.06;99940.13;4996794;28;45932;-50
2023/04/12 01:25:23;;;;;;;;;1.67;1.67;;;;;10.92;82.80;99942.47;4997138;28;45334;-50
2023/04/12 01:28:01;;;;;;;;;6.00;3.00;;;;;10.91;83.11;99946.94;4936488;28;45584;-49
2023/04/12 01:30:28;;;;;;;;;4.33;4.33;;;;;10.90;82.46;99931.13;4936301;28;45456;-51
2023/04/12 01:32:55;;;;;;;;;5.67;2.00;;;;;10.89;82.84;99930.31;4936306;28;45317;-47
2023/04/12 01:35:27;;;;;;;;;9.67;3.00;;;;;10.94;83.25;99916.50;4936632;28;45317;-52
2023/04/12 01:37:59;;;;;;;;;6.00;5.67;;;;;10.89;83.08;99916.19;4936547;28;45320;-54
2023/04/12 01:40:28;;;;;;;;;3.00;2.00;;;;;10.92;82.68;99908.69;4936305;28;45688;-55
2023/04/12 01:43:10;;;;;;;;;2.00;2.00;;;;;10.86;83.41;99893.38;4936225;28;45424;-54
2023/04/12 01:45:36;;;;;;;;;6.33;3.00;;;;;10.91;83.33;99898.19;4920452;28;45389;-54
2023/04/12 01:48:04;;;;;;;;;1.33;1.33;;;;;10.86;83.69;99874.75;4936579;28;45401;-50
2023/04/12 01:51:05;;;;;;;;;6.00;3.00;;;;;10.88;83.71;99879.94;4935886;28;47552;-49
2023/04/12 01:53:52;;;;;;;;;4.00;3.00;;;;;10.90;83.80;99869.94;4935874;28;45482;-49
2023/04/12 01:56:21;;;;;;;;;8.00;3.00;;;;;10.91;84.28;99869.78;4936351;28;45436;-49
2023/04/12 01:58:47;;;;;;;;;6.00;3.67;;;;;10.90;83.73;99883.25;4936102;28;45346;-54
2023/04/12 02:01:14;;;;;;;;;5.67;3.00;;;;;10.85;82.79;99858.97;4935823;28;46235;-54
2023/04/12 02:03:41;;;;;;;;;5.67;3.67;;;;;10.95;83.42;99864.94;4944510;28;45466;-48
2023/04/12 02:06:08;;;;;;;;;5.00;5.00;;;;;10.93;83.04;99857.13;4996760;28;45436;-53
2023/04/12 02:08:34;;;;;;;;;5.00;5.00;;;;;10.95;83.00;99862.25;4999379;28;45361;-50
2023/04/12 02:11:00;;;;;;;;;8.00;3.00;;;;;10.93;83.45;99846.47;4999580;28;46422;-48
2023/04/12 02:13:25;;;;;;;;;5.67;2.00;;;;;10.99;84.22;99852.94;4999806;28;45186;-52
2023/04/12 02:15:53;;;;;;;;;4.33;3.00;;;;;11.02;83.44;99833.97;5000033;28;45342;-54
2023/04/12 02:18:19;;;;;;;;;10.00;3.67;;;;;11.04;83.24;99837.31;5000150;28;45392;-52
2023/04/12 02:20:45;;;;;;;;;6.67;4.33;;;;;11.05;84.20;99815.00;4998590;28;45305;-47
2023/04/12 02:23:11;;;;;;;;;4.67;4.33;;;;;11.05;83.68;99809.69;4999518;28;45305;-48
2023/04/12 02:25:38;;;;;;;;;8.33;2.00;;;;;11.03;84.04;99802.88;4999906;28;45487;-50
2023/04/12 02:28:03;;;;;;;;;2.67;2.00;;;;;11.03;84.51;99798.38;5000043;28;45511;-52
2023/04/12 02:30:29;;;;;;;;;7.00;2.67;;;;;11.10;83.72;99795.88;4999537;28;45403;-48
2023/04/12 02:32:55;;;;;;;;;8.00;3.00;;;;;11.10;84.77;99788.72;4999566;28;45287;-51
2023/04/12 02:35:21;;;;;;;;;3.00;2.00;;;;;11.11;83.51;99786.88;4999820;28;45510;-48
2023/04/12 02:37:47;;;;;;;;;2.33;2.33;;;;;11.08;85.12;99790.72;4999949;28;45326;-49
2023/04/12 02:40:14;;;;;;;;;7.33;2.67;;;;;11.14;84.83;99778.53;4999216;28;46048;-52
2023/04/12 02:42:43;;;;;;;;;9.33;5.00;;;;;11.13;84.44;99764.41;4999139;28;45341;-51
2023/04/12 02:45:10;;;;;;;;;6.00;3.00;;;;;11.07;84.36;99762.44;4999498;28;45320;-55
2023/04/12 02:47:36;;;;;;;;;3.00;3.00;;;;;11.17;84.52;99763.06;4999562;28;45306;-55
2023/04/12 02:50:02;;;;;;;;;1.00;1.00;;;;;11.19;83.96;99755.72;4999236;28;45475;-52
2023/04/12 02:52:28;;;;;;;;;5.67;5.00;;;;;11.20;85.21;99752.03;4999078;28;45413;-52
2023/04/12 02:54:54;;;;;;;;;2.33;2.33;;;;;11.23;83.23;99745.53;4999302;28;45328;-49
2023/04/12 02:57:20;;;;;;;;;4.00;3.00;;;;;11.20;84.35;99732.59;4999409;28;45331;-51
2023/04/12 02:59:46;;;;;;;;;1.00;1.00;;;;;11.26;84.48;99741.72;4998415;28;45433;-54
2023/04/12 03:02:11;;;;;;;;;5.67;2.00;;;;;11.28;84.65;99739.69;4999144;28;45350;-50
2023/04/12 03:04:38;;;;;;;;;2.00;2.00;;;;;11.28;84.57;99742.34;4999449;28;45282;-52
2023/04/12 03:07:05;;;;;;;;;1.00;0.00;;;;;11.30;84.06;99743.84;4981750;28;45525;-51
2023/04/12 03:09:31;;;;;;;;;4.67;3.00;;;;;11.29;85.35;99728.84;4998639;28;45422;-53
2023/04/12 03:11:56;;;;;;;;;6.00;1.00;;;;;11.32;84.93;99714.38;4999054;28;45449;-51
2023/04/12 03:14:22;;;;;;;;;3.67;2.33;;;;;11.36;84.80;99723.66;4998828;28;45335;-53
2023/04/12 03:16:50;;;;;;;;;2.67;2.67;;;;;11.38;85.39;99709.19;4999324;28;45225;-50
2023/04/12 03:19:15;;;;;;;;;1.00;1.00;;;;;11.29;85.91;99694.25;4998064;28;47134;-51
2023/04/12 03:21:41;;;;;;;;;3.00;0.67;;;;;11.44;84.42;99720.97;4998804;28;45406;-49
2023/04/12 03:24:06;;;;;;;;;2.00;2.00;;;;;11.43;86.04;99706.00;4999023;28;45447;-52
2023/04/12 03:26:31;;;;;;;;;3.00;3.00;;;;;11.47;85.45;99699.31;4999016;28;45356;-50
2023/04/12 03:29:03;;;;;;;;;3.00;2.00;;;;;11.49;85.87;99702.59;4998405;28;45273;-54
2023/04/12 03:31:30;;;;;;;;;2.33;1.00;;;;;11.52;85.99;99699.59;4998811;28;45415;-52
2023/04/12 03:33:56;;;;;;;;;3.00;1.00;;;;;11.53;86.41;99701.25;4998627;28;45576;-51
2023/04/12 03:36:21;;;;;;;;;4.67;2.67;;;;;11.57;85.67;99733.69;4999013;28;45460;-51
2023/04/12 03:38:46;;;;;;;;;2.67;1.00;;;;;11.62;86.42;99734.78;4998554;28;46915;-51
2023/04/12 03:41:12;;;;;;;;;1.00;1.00;;;;;11.64;86.33;99743.44;4998475;28;45503;-49
2023/04/12 03:43:37;;;;;;;;;1.00;1.00;;;;;11.65;84.33;99741.63;4998708;28;45626;-50
2023/04/12 03:46:04;;;;;;;;;0.33;0.33;;;;;11.64;84.47;99742.63;4998875;28;45427;-57
2023/04/12 03:48:29;;;;;;;;;0.00;0.00;;;;;11.62;83.92;99750.78;4998561;28;46373;-57
2023/04/12 03:50:55;;;;;;;;;0.00;0.00;;;;;11.59;84.25;99737.00;4998455;28;45290;-52
2023/04/12 03:53:20;;;;;;;;;0.00;0.00;;;;;11.57;83.48;99736.34;4998576;28;45370;-49
2023/04/12 03:55:46;;;;;;;;;0.00;0.00;;;;;11.55;83.53;99714.41;4998658;28;45167;-52
2023/04/12 03:58:15;;;;;;;;;0.00;0.00;;;;;11.49;82.76;99722.06;4998339;28;45229;-50
2023/04/12 04:00:41;;;;;;;;;0.00;0.00;;;;;11.47;82.69;99713.44;4998530;28;45358;-50
2023/04/12 04:03:07;;;;;;;;;0.00;0.00;;;;;11.47;83.15;99721.44;4998507;28;45254;-53
2023/04/12 04:05:33;;;;;;;;;0.00;0.00;;;;;11.41;82.76;99714.13;4998605;28;45377;-49
2023/04/12 04:08:01;;;;;;;;;0.00;0.00;;;;;11.45;82.90;99717.28;4998201;28;46298;-52
2023/04/12 04:10:27;;;;;;;;;2.33;0.00;;;;;11.44;83.03;99719.13;4997979;28;45837;-51
2023/04/12 04:12:53;;;;;;;;;0.00;0.00;;;;;11.45;83.21;99717.28;4998285;28;45315;-50
2023/04/12 04:15:18;;;;;;;;;0.00;0.00;;;;;11.46;83.17;99718.94;4998338;28;45506;-54
2023/04/12 04:17:46;;;;;;;;;0.67;0.00;;;;;11.45;83.05;99709.28;4998114;28;45629;-51
2023/04/12 04:20:12;;;;;;;;;0.00;0.00;;;;;11.44;83.54;99710.31;4997669;28;45407;-56
2023/04/12 04:22:38;;;;;;;;;0.00;0.00;;;;;11.43;83.50;99706.81;4997949;28;45302;-52
2023/04/12 04:25:04;;;;;;;;;2.00;1.00;;;;;11.45;83.28;99701.31;4997974;28;45543;-57
2023/04/12 04:27:33;;;;;;;;;2.00;0.00;;;;;11.45;82.97;99698.63;4997794;28;47096;-56
2023/04/12 04:30:01;;;;;;;;;0.00;0.00;;;;;11.38;82.82;99690.56;4997736;28;45464;-55
2023/04/12 04:32:27;;;;;;;;;0.00;0.00;;;;;11.44;83.02;99703.13;4998110;28;45357;-59
2023/04/12 04:34:55;;;;;;;;;0.67;0.00;;;;;11.47;82.53;99704.63;4998055;28;45314;-51
2023/04/12 04:37:20;;;;;;;;;0.00;0.00;;;;;11.45;83.08;99703.97;4997561;28;47064;-53
2023/04/12 04:39:46;;;;;;;;;0.00;0.00;;;;;11.46;82.55;99702.94;4997778;28;45230;-57
2023/04/12 04:42:11;;;;;;;;;1.00;0.00;;;;;11.46;82.63;99706.47;4997410;28;45869;-56
2023/04/12 04:44:37;;;;;;;;;0.00;0.00;;;;;11.45;82.28;99711.94;4998110;28;45205;-52
2023/04/12 04:47:03;;;;;;;;;0.00;0.00;;;;;11.43;81.47;99709.47;4997431;28;45314;-54
2023/04/12 04:49:29;;;;;;;;;0.00;0.00;;;;;11.41;81.37;99708.81;4997344;28;45499;-54
2023/04/12 04:51:54;;;;;;;;;0.00;0.00;;;;;11.40;81.14;99704.50;4997606;28;45274;-50
2023/04/12 04:54:20;;;;;;;;;0.00;0.00;;;;;11.39;81.19;99712.69;4997932;28;45345;-54
2023/04/12 04:56:45;;;;;;;;;0.67;0.00;;;;;11.36;81.58;99711.19;4997446;28;45430;-53
2023/04/12 04:59:10;;;;;;;;;0.00;0.00;;;;;11.39;81.95;99697.53;4997616;28;45364;-57
2023/04/12 05:01:36;;;;;;;;;0.00;0.00;;;;;11.37;82.35;99694.19;4997511;28;45511;-56
2023/04/12 05:04:02;;;;;;;;;0.00;0.00;;;;;11.38;81.94;99701.19;4997811;28;45517;-58
2023/04/12 05:06:27;;;;;;;;;0.00;0.00;;;;;11.36;81.91;99694.38;4997245;28;45460;-53
2023/04/12 05:08:52;;;;;;;;;0.00;0.00;;;;;11.39;82.10;99683.38;4997508;28;45389;-56
2023/04/12 05:11:19;;;;;;;;;0.00;0.00;;;;;11.39;82.18;99689.53;4997308;28;45286;-54
2023/04/12 05:13:44;;;;;;;;;0.00;0.00;;;;;11.39;83.04;99678.06;4996354;28;45319;-56
2023/04/12 05:16:10;;;;;;;;;0.00;0.00;;;;;11.36;83.12;99689.06;4997072;28;48713;-58
2023/04/12 05:18:36;;;;;;;;;0.00;0.00;;;;;11.33;82.75;99684.06;4997078;28;45501;-50
2023/04/12 05:21:04;;;;;;;;;1.33;1.00;;;;;11.37;82.75;99674.72;4997445;28;45348;-58
2023/04/12 05:23:35;;;;;;;;;0.33;0.00;;;;;11.38;82.47;99679.06;4997444;28;45409;-57
2023/04/12 05:26:01;;;;;;;;;0.00;0.00;;;;;11.37;82.62;99678.22;4979261;28;46023;-53
2023/04/12 05:28:26;;;;;;;;;0.00;0.00;;;;;11.32;82.16;99685.09;4997309;28;45234;-55
2023/04/12 05:30:51;;;;;;;;;0.00;0.00;;;;;11.43;82.33;99706.00;4997024;28;45331;-53
2023/04/12 05:33:16;;;;;;;;;1.00;0.00;;;;;11.42;82.17;99713.16;4997392;28;45329;-55
2023/04/12 05:35:42;;;;;;;;;0.00;0.00;;;;;11.42;82.46;99713.16;4996671;28;45365;-55
2023/04/12 05:38:07;;;;;;;;;1.33;1.00;;;;;11.43;82.14;99735.28;4996896;28;46745;-58
2023/04/12 05:40:35;;;;;;;;;3.00;1.00;;;;;11.37;80.35;99747.44;4997080;28;45242;-53
2023/04/12 05:43:00;;;;;;;;;2.00;2.00;;;;;11.29;79.31;99741.34;4998931;28;45787;-53
2023/04/12 05:45:26;;;;;;;;;3.33;3.00;;;;;11.22;79.02;99752.72;5000206;28;46170;-54
2023/04/12 05:47:53;;;;;;;;;2.00;2.00;;;;;11.16;78.64;99753.41;5000536;28;45389;-58
2023/04/12 05:50:19;;;;;;;;;1.00;1.00;;;;;11.08;78.91;99753.47;5000383;28;45453;-55
2023/04/12 05:52:44;;;;;;;;;2.00;1.00;;;;;11.01;77.47;99752.50;5000541;28;45441;-54
2023/04/12 05:55:10;;;;;;;;;0.33;0.00;;;;;10.92;76.54;99759.69;4982596;28;46034;-53
2023/04/12 05:57:35;;;;;;;;;1.00;0.00;;;;;10.91;76.00;99775.81;5000210;28;45314;-56
2023/04/12 06:00:00;;;;;;;;;2.00;0.00;;;;;10.74;75.71;99759.94;4999980;28;45258;-57
2023/04/12 06:02:26;;;;;;;;;2.00;0.00;;;;;10.78;75.98;99788.81;5000475;28;45255;-52
2023/04/12 06:04:52;;;;;;;;;0.00;0.00;;;;;10.65;75.71;99790.19;5000228;28;46293;-55
2023/04/12 06:07:18;;;;;;;;;1.33;0.00;;;;;10.60;75.36;99789.03;5000305;28;45394;-55
2023/04/12 06:09:43;;;;;;;;;1.00;0.67;;;;;10.58;75.16;99799.03;5000099;28;45374;-55
2023/04/12 06:12:09;;;;;;;;;0.67;0.67;;;;;10.56;75.84;99803.69;5000218;28;45586;-50
2023/04/12 06:14:34;;;;;;;;;1.00;0.00;;;;;10.55;76.03;99799.38;5000114;28;45399;-53
2023/04/12 06:17:00;;;;;;;;;0.00;0.00;;;;;10.55;76.30;99800.19;5000165;28;45347;-57
2023/04/12 06:19:26;;;;;;;;;0.67;0.67;;;;;10.55;76.86;99794.88;5000079;28;45274;-50
2023/04/12 06:21:51;;;;;;;;;1.33;0.67;;;;;10.61;76.98;99794.19;5000375;28;45465;-52
2023/04/12 06:24:17;;;;;;;;;4.33;0.33;;;;;10.67;77.05;99780.22;4999987;28;45836;-47
2023/04/12 06:26:45;;;;;;;;;3.00;1.00;;;;;10.74;76.80;99781.22;4999571;28;45468;-52
2023/04/12 06:29:11;;;;;;;;;2.00;2.00;;;;;10.73;76.56;99782.19;4999908;28;45263;-48
2023/04/12 06:31:36;;;;;;;;;0.67;0.67;;;;;10.75;76.90;99800.66;4999810;28;45412;-52
2023/04/12 06:34:02;;;;;;;;;1.00;0.00;;;;;10.70;76.97;99809.16;4999583;28;46306;-48
2023/04/12 06:36:27;;;;;;;;;0.00;0.00;;;;;10.70;76.63;99819.78;4999758;28;45261;-57
2023/04/12 06:38:53;;;;;;;;;2.00;1.00;;;;;10.64;76.67;99801.84;4999858;28;45433;-51
2023/04/12 06:41:19;;;;;;;;;1.33;1.33;;;;;10.67;76.68;99811.31;4999647;28;45371;-50
2023/04/12 06:43:44;;;;;;;;;3.67;3.67;;;;;10.66;76.86;99802.50;4999219;28;45321;-49
2023/04/12 06:46:10;;;;;;;;;6.00;4.33;;;;;10.74;76.63;99780.34;4981801;28;45351;-49
2023/04/12 06:48:35;;;;;;;;;9.00;3.67;;;;;10.97;76.51;99780.44;4999585;28;45493;-52
2023/04/12 06:51:01;;;;;;;;;2.00;2.00;;;;;11.09;76.06;99787.06;4999802;28;45293;-50
2023/04/12 06:53:26;;;;;;;;;3.00;2.67;;;;;11.12;75.78;99786.69;4998204;28;46741;-50
2023/04/12 06:55:52;;;;;;;;;5.33;3.00;;;;;11.18;76.83;99796.66;4999291;28;45422;-55
2023/04/12 06:58:18;;;;;;;;;3.00;3.00;;;;;11.27;76.39;99799.28;4999356;28;45382;-54
2023/04/12 07:00:43;;;;;;;;;2.00;2.00;;;;;11.38;76.16;99805.06;4999798;28;45360;-52
2023/04/12 07:03:09;;;;;;;;;3.00;3.00;;;;;11.55;75.86;99815.63;4999263;28;46125;-54
2023/04/12 07:05:38;;;;;;;;;1.33;1.33;;;;;11.64;73.74;99810.03;4998902;28;45409;-54
2023/04/12 07:08:04;;;;;;;;;1.00;1.00;;;;;11.65;73.04;99792.22;4999508;28;45235;-54
2023/04/12 07:10:29;;;;;;;;;2.00;0.00;;;;;11.86;72.09;99804.94;4999358;28;45349;-54
2023/04/12 07:12:55;;;;;;;;;1.00;1.00;;;;;12.02;70.90;99810.16;4998972;28;45421;-55
2023/04/12 07:15:21;;;;;;;;;2.67;1.33;;;;;12.22;69.87;99805.97;4999203;28;45381;-54
2023/04/12 07:17:46;;;;;;;;;0.67;0.67;;;;;12.32;69.10;99804.88;4999158;28;45321;-55
2023/04/12 07:20:11;;;;;;;;;0.00;0.00;;;;;12.36;70.10;99800.84;4999441;28;45379;-54
2023/04/12 07:22:37;;;;;;;;;1.67;1.33;;;;;12.36;68.84;99801.69;4998982;28;46082;-55
2023/04/12 07:25:08;;;;;;;;;2.33;1.00;;;;;12.36;69.08;99798.19;4999002;28;45520;-52
2023/04/12 07:27:34;;;;;;;;;0.00;0.00;;;;;12.31;68.21;99785.41;4999221;28;45392;-55
2023/04/12 07:29:59;;;;;;;;;2.00;1.00;;;;;12.26;68.84;99789.59;4999047;28;45365;-55
2023/04/12 07:32:24;;;;;;;;;3.00;0.00;;;;;12.20;68.26;99785.81;4997943;28;45351;-53
2023/04/12 07:34:50;;;;;;;;;2.00;0.33;;;;;12.10;67.67;99785.25;4997808;28;45341;-52
2023/04/12 07:37:16;;;;;;;;;7.00;7.00;;;;;12.07;67.52;99774.94;4995197;28;45465;-54
2023/04/12 07:39:42;;;;;;;;;6.00;2.00;;;;;12.14;68.22;99760.72;4995698;28;45623;-55
2023/04/12 07:42:07;;;;;;;;;1.00;0.00;;;;;12.33;66.68;99753.19;4994924;28;52314;-52
2023/04/12 07:44:32;;;;;;;;;0.00;0.00;;;;;12.42;66.38;99755.59;4995485;28;45376;-50
2023/04/12 07:46:58;;;;;;;;;3.00;0.00;;;;;12.62;66.37;99763.91;4995649;28;45372;-55
2023/04/12 07:49:23;;;;;;;;;1.00;1.00;;;;;12.64;65.52;99767.22;4995804;28;45449;-56
2023/04/12 07:51:48;;;;;;;;;1.00;1.00;;;;;12.60;66.01;99770.41;4995408;28;46099;-54
2023/04/12 07:54:14;;;;;;;;;0.67;0.00;;;;;12.60;65.13;99757.06;4995248;28;45354;-49
2023/04/12 07:56:39;;;;;;;;;1.00;1.00;;;;;12.62;65.19;99745.22;4995152;28;45460;-57
2023/04/12 07:59:05;;;;;;;;;0.00;0.00;;;;;12.86;65.05;99765.47;4995696;28;45818;-47
2023/04/12 08:01:31;;;;;;;;;0.67;0.67;;;;;12.94;65.50;99756.53;4995201;28;46023;-52
2023/04/12 08:03:56;;;;;;;;;1.00;1.00;;;;;13.15;64.82;99761.94;4995691;28;45377;-57
2023/04/12 08:06:22;;;;;;;;;1.00;0.67;;;;;14.12;63.22;99764.16;4997043;28;46462;-56
2023/04/12 08:08:47;;;;;;;;;2.33;1.00;;;;;16.76;57.08;99764.31;5001527;28;45339;-50
2023/04/12 08:11:12;;;;;;;;;2.00;0.33;;;;;18.80;53.59;99757.81;5002422;28;47076;-55
2023/04/12 08:13:38;;;;;;;;;1.00;1.00;;;;;20.06;48.59;99756.94;5000931;28;45381;-47
2023/04/12 08:16:03;;;;;;;;;0.00;0.00;;;;;20.37;47.66;99768.44;5000681;28;45223;-60
2023/04/12 08:18:29;;;;;;;;;1.67;0.00;;;;;20.01;46.26;99774.84;4987497;28;45982;-58
2023/04/12 08:20:56;;;;;;;;;1.00;1.00;;;;;19.42;49.28;99775.50;5000643;28;46012;-53
2023/04/12 08:23:22;;;;;;;;;2.00;1.00;;;;;18.77;49.12;99777.94;4999726;28;45286;-47
2023/04/12 08:25:47;;;;;;;;;0.25;0.25;;;;;18.23;50.82;99786.69;5001473;28;45330;-47
2023/04/12 08:28:12;;;;;;;;;0.00;0.00;;;;;17.83;50.05;99812.03;5000124;28;45699;-51
2023/04/12 08:30:38;;;;;;;;;0.00;0.00;;;;;17.12;53.28;99793.34;5000821;28;45415;-50
2023/04/12 08:33:03;;;;;;;;;0.00;0.00;;;;;16.62;51.66;99818.03;4998863;28;45330;-52
2023/04/12 08:35:29;;;;;;;;;0.00;0.00;;;;;16.47;53.28;99833.50;4997803;28;45462;-58
2023/04/12 08:37:54;;;;;;;;;1.00;0.00;;;;;16.44;53.43;99831.25;4997242;28;45361;-50
2023/04/12 08:40:20;;;;;;;;;0.00;0.00;;;;;16.67;51.88;99834.31;4994986;28;45544;-56
2023/04/12 08:42:46;;;;;;;;;0.00;0.00;;;;;16.46;51.82;99827.31;4994333;28;45495;-55
2023/04/12 08:45:12;;;;;;;;;0.00;0.00;;;;;16.13;52.90;99819.25;4994105;28;45827;-51
2023/04/12 08:47:40;;;;;;;;;0.00;0.00;;;;;16.17;53.01;99820.50;4995036;28;45445;-56
2023/04/12 08:50:09;;;;;;;;;0.00;0.00;;;;;16.59;50.92;99820.28;4994297;28;46386;-56
2023/04/12 08:52:36;;;;;;;;;2.00;0.00;;;;;17.46;49.70;99825.25;4994651;28;45286;-52
2023/04/12 08:55:03;;;;;;;;;0.00;0.00;;;;;18.83;46.88;99819.31;4994434;28;45416;-56
2023/04/12 08:57:29;;;;;;;;;0.00;0.00;;;;;20.16;45.46;99824.66;4994508;28;45482;-58
2023/04/12 08:59:55;;;;;;;;;0.00;0.00;;;;;22.17;42.22;99832.22;4994403;28;46260;-54
2023/04/12 09:02:20;;;;;;;;;1.00;1.00;;;;;23.22;39.79;99829.75;4994134;28;45896;-57
2023/04/12 09:04:47;;;;;;;;;2.00;0.00;;;;;24.85;35.64;99819.59;4994697;28;45439;-58
2023/04/12 09:07:12;;;;;;;;;1.00;0.00;;;;;27.13;32.88;99827.63;4994086;28;45495;-55
2023/04/12 09:09:46;;;;;;;;;0.75;0.75;;;;;26.22;34.12;99829.34;4993991;28;47224;-54
2023/04/12 09:12:13;;;;;;;;;1.60;0.40;;;;;26.02;36.64;99835.59;4992897;28;45828;-57
2023/04/12 09:14:42;;;;;;;;;0.00;0.00;;;;;25.91;35.61;99823.84;4994038;28;45607;-56
2023/04/12 09:17:24;;;;;;;;;1.80;0.00;;;;;24.24;34.61;99836.28;4993610;28;45555;-57
2023/04/12 09:19:50;;;;;;;;;0.00;0.00;;;;;25.31;33.20;99837.00;4993978;28;46594;-56
2023/04/12 09:22:16;;;;;;;;;1.00;0.00;;;;;26.64;31.12;99834.53;4993774;28;45412;-57
2023/04/12 09:24:50;;;;;;;;;0.00;0.00;;;;;26.75;32.77;99825.22;4994026;28;45479;-57
2023/04/12 09:27:19;;;;;;;;;0.00;0.00;;;;;27.16;31.88;99818.88;4994357;28;45559;-55
2023/04/12 09:29:45;;;;;;;;;0.00;0.00;;;;;28.36;28.81;99825.84;4993738;28;46155;-54
2023/04/12 09:32:10;;;;;;;;;0.50;0.00;;;;;28.80;28.76;99825.69;4994010;28;45548;-56
2023/04/12 09:34:36;;;;;;;;;0.00;0.00;;;;;29.14;28.46;99834.94;4994123;28;45442;-56
2023/04/12 09:37:16;;;;;;;;;0.00;0.00;;;;;30.69;29.49;99828.53;4994022;28;45548;-52
2023/04/12 09:39:42;;;;;;;;;1.60;0.00;;;;;29.57;27.35;99825.63;4995004;28;45379;-53
2023/04/12 09:42:13;;;;;;;;;2.00;1.50;;;;;29.23;25.86;99819.47;4996785;28;45246;-56
2023/04/12 09:44:39;;;;;;;;;0.40;0.00;;;;;29.89;27.79;99815.03;4996836;28;45402;-55
2023/04/12 09:47:05;;;;;;;;;2.00;0.00;;;;;30.42;25.52;99820.22;4997134;28;45309;-55
2023/04/12 09:49:40;;;;;;;;;0.00;0.00;;;;;28.23;31.50;99829.19;4996867;28;46243;-55
2023/04/12 09:52:07;;;;;;;;;0.00;0.00;;;;;26.00;30.39;99840.50;4996798;28;45250;-56
2023/04/12 09:54:56;;;;;;;;;0.40;0.00;;;;;23.96;31.98;99861.81;4996960;28;45386;-53
2023/04/12 09:57:23;;;;;;;;;0.00;0.00;;;;;22.53;36.43;99865.31;4979396;28;45255;-47
2023/04/12 09:59:51;;;;;;;;;0.00;0.00;;;;;22.19;34.74;99863.66;4996854;28;46125;-47
2023/04/12 10:02:18;;;;;;;;;2.20;0.60;;;;;23.06;34.19;99871.31;4996762;28;45414;-53
2023/04/12 10:04:47;;;;;;;;;1.20;1.20;;;;;23.94;32.93;99865.88;4997029;28;45242;-47
2023/04/12 10:07:13;;;;;;;;;2.40;0.20;;;;;22.41;33.57;99862.69;4997266;28;45577;-51
2023/04/12 10:09:40;;;;;;;;;0.00;0.00;;;;;20.90;36.30;99840.50;4996552;28;46276;-50
2023/04/12 10:12:06;;;;;;;;;0.60;0.00;;;;;20.08;37.88;99854.69;4996753;28;45269;-50
2023/04/12 10:14:32;;;;;;;;;0.00;0.00;;;;;21.00;35.98;99862.34;4996445;28;45246;-52
2023/04/12 10:17:02;;;;;;;;;0.50;0.25;;;;;21.15;36.14;99857.28;4997055;28;45262;-47
2023/04/12 10:19:32;;;;;;;;;2.00;0.00;;;;;21.52;35.43;99861.56;4996778;28;45327;-47
2023/04/12 10:21:58;;;;;;;;;1.00;0.00;;;;;21.39;35.27;99857.25;4996661;28;45179;-49
2023/04/12 10:24:25;;;;;;;;;0.00;0.00;;;;;20.53;37.25;99846.13;4996803;28;45397;-50
2023/04/12 10:26:54;;;;;;;;;1.00;1.00;;;;;19.92;38.29;99852.66;4996407;28;45596;-51
2023/04/12 10:29:32;;;;;;;;;0.50;0.50;;;;;19.25;39.34;99852.66;4998062;28;46271;-50
2023/04/12 10:32:19;;;;;;;;;0.00;0.00;;;;;18.88;38.96;99854.53;4999703;28;45382;-51
2023/04/12 10:34:53;;;;;;;;;1.25;1.00;;;;;20.48;37.30;99859.53;4999807;28;45430;-53
2023/04/12 10:37:19;;;;;;;;;1.50;0.75;;;;;21.01;35.60;99863.16;5000066;28;45374;-49
2023/04/12 10:39:51;;;;;;;;;2.50;1.50;;;;;20.66;36.65;99862.13;4999414;28;46127;-50
2023/04/12 10:42:17;;;;;;;;;1.00;1.00;;;;;20.61;37.01;99863.88;4999487;28;45334;-51
2023/04/12 10:44:43;;;;;;;;;1.00;0.00;;;;;21.16;36.47;99855.41;4999585;28;45341;-52
2023/04/12 10:47:09;;;;;;;;;2.00;1.00;;;;;21.70;34.75;99861.41;4999939;28;45231;-53
2023/04/12 10:49:34;;;;;;;;;0.00;0.00;;;;;21.03;35.21;99866.47;4999602;28;45353;-50
2023/04/12 10:52:00;;;;;;;;;4.00;3.50;;;;;24.76;32.21;99859.25;4999413;28;45535;-53
2023/04/12 10:54:25;;;;;;;;;0.00;0.00;;;;;27.82;27.47;99838.50;4999644;28;45439;-52
2023/04/12 10:56:51;;;;;;;;;2.00;1.25;;;;;30.32;25.65;99848.66;4999760;28;45431;-50
2023/04/12 10:59:16;;;;;;;;;2.00;1.00;;;;;31.93;25.74;99852.44;4999036;28;45352;-52
2023/04/12 11:02:08;;;;;;;;;1.00;1.00;;;;;30.38;26.08;99849.38;4999483;28;45335;-49
2023/04/12 11:04:34;;;;;;;;;2.20;0.80;;;;;29.77;24.23;99853.88;4999380;28;45440;-52
2023/04/12 11:07:03;;;;;;;;;1.00;0.00;;;;;28.66;24.14;99854.03;4999645;28;45159;-48
2023/04/12 11:09:39;;;;;;;;;0.80;0.80;;;;;28.32;25.21;99854.84;4998979;28;46208;-54
2023/04/12 11:12:05;;;;;;;;;3.80;1.00;;;;;27.97;24.75;99853.97;4999274;28;45222;-53
2023/04/12 11:14:44;;;;;;;;;3.00;1.50;;;;;26.59;26.90;99856.38;4999169;28;45464;-54
2023/04/12 11:17:13;;;;;;;;;0.40;0.40;;;;;28.20;27.66;99854.38;4999662;28;45462;-55
2023/04/12 11:19:43;;;;;;;;;0.20;0.20;;;;;30.40;25.45;99838.94;4998999;28;46315;-52
2023/04/12 11:22:10;;;;;;;;;0.00;0.00;;;;;30.20;23.38;99848.31;4999259;28;45270;-52
2023/04/12 11:24:41;;;;;;;;;0.80;0.80;;;;;29.98;23.66;99854.38;4999138;28;45369;-48
2023/04/12 11:27:07;;;;;;;;;0.20;0.20;;;;;28.60;23.58;99853.25;4999326;28;45344;-52
2023/04/12 11:29:33;;;;;;;;;1.00;1.00;;;;;27.04;25.77;99854.63;4998819;28;46148;-50
2023/04/12 11:32:02;;;;;;;;;2.80;0.80;;;;;26.95;26.95;99868.03;4998899;28;45484;-52